createdAt,value
2019-02-07T00:00:37.152Z,112.83
2019-02-07T00:03:06.066Z,116.03
2019-02-07T00:05:35.046Z,115.33
2019-02-07T00:08:04.005Z,117.03
2019-02-07T00:10:33.136Z,126.23
2019-02-07T00:13:02.019Z,122.83
2019-02-07T00:15:31.001Z,125.50
2019-02-07T00:17:59.890Z,128.27
2019-02-07T00:20:29.614Z,123.43
2019-02-07T00:22:58.289Z,110.03
2019-02-07T00:25:27.291Z,119.17
2019-02-07T00:27:56.672Z,122.13
2019-02-07T00:30:25.418Z,99.80
2019-02-07T00:32:54.079Z,109.97
2019-02-07T00:35:22.959Z,102.93
2019-02-07T00:37:52.132Z,115.70
2019-02-07T00:40:21.523Z,103.87
2019-02-07T00:42:50.334Z,109.10
2019-02-07T00:45:19.432Z,110.73
2019-02-07T00:47:48.459Z,105.40
2019-02-07T00:50:17.317Z,102.70
2019-02-07T00:52:46.066Z,108.30
2019-02-07T00:55:15.055Z,104.03
2019-02-07T00:57:44.113Z,111.50
2019-02-07T01:00:18.802Z,111.53
2019-02-07T01:02:47.860Z,110.00
2019-02-07T01:05:16.832Z,111.30
2019-02-07T01:07:45.930Z,116.70
2019-02-07T01:10:22.880Z,118.70
2019-02-07T01:12:51.619Z,114.97
2019-02-07T01:15:20.788Z,111.37
2019-02-07T01:17:49.926Z,111.23
2019-02-07T01:20:18.891Z,115.67
2019-02-07T01:22:47.617Z,109.43
2019-02-07T01:25:18.715Z,122.80
2019-02-07T01:27:47.634Z,120.00
2019-02-07T01:30:19.000Z,127.37
2019-02-07T01:32:47.974Z,130.50
2019-02-07T01:35:16.634Z,126.27
2019-02-07T01:37:45.440Z,123.50
2019-02-07T01:40:16.367Z,122.00
2019-02-07T01:42:45.105Z,113.57
2019-02-07T01:45:15.961Z,127.63
2019-02-07T01:47:44.754Z,123.97
2019-02-07T01:50:15.060Z,125.73
2019-02-07T01:52:44.035Z,116.33
2019-02-07T01:55:12.864Z,129.97
2019-02-07T01:57:41.697Z,140.27
2019-02-07T02:00:13.609Z,135.17
2019-02-07T02:02:43.973Z,145.70
2019-02-07T02:05:13.916Z,142.53
2019-02-07T02:07:43.052Z,140.50
2019-02-07T02:10:17.250Z,131.33
2019-02-07T02:12:46.465Z,155.67
2019-02-07T02:15:24.400Z,147.07
2019-02-07T02:17:48.227Z,149.30
2019-02-07T02:20:17.755Z,147.30
2019-02-07T02:22:46.447Z,146.30
2019-02-07T02:25:15.448Z,156.83
2019-02-07T02:27:44.411Z,143.93
2019-02-07T02:30:19.006Z,158.30
2019-02-07T02:32:47.983Z,162.00
2019-02-07T02:35:16.696Z,166.33
2019-02-07T02:37:45.449Z,151.87
2019-02-07T02:40:14.679Z,173.57
2019-02-07T02:42:43.647Z,162.00
2019-02-07T02:45:13.548Z,170.10
2019-02-07T02:47:42.610Z,162.33
2019-02-07T02:50:13.637Z,162.77
2019-02-07T02:52:42.650Z,163.03
2019-02-07T02:55:12.794Z,173.37
2019-02-07T02:57:41.745Z,165.73
2019-02-07T03:00:18.097Z,164.33
2019-02-07T03:03:05.816Z,166.40
2019-02-07T03:05:58.262Z,160.57
2019-02-07T03:08:44.661Z,161.93
2019-02-07T03:11:38.802Z,153.20
2019-02-07T03:14:26.806Z,166.40
2019-02-07T03:17:13.510Z,167.63
2019-02-07T03:20:04.193Z,163.87
2019-02-07T03:22:50.800Z,172.10
2019-02-07T03:25:36.844Z,169.87
2019-02-07T03:28:24.887Z,171.03
2019-02-07T03:31:25.221Z,162.67
2019-02-07T03:34:15.752Z,177.57
2019-02-07T03:37:03.471Z,170.13
2019-02-07T03:39:42.302Z,168.40
2019-02-07T03:42:26.441Z,169.57
2019-02-07T03:45:17.051Z,164.87
2019-02-07T03:47:59.828Z,151.43
2019-02-07T03:50:46.752Z,142.53
2019-02-07T03:53:37.578Z,149.80
2019-02-07T03:56:24.193Z,139.37
2019-02-07T03:59:08.742Z,140.63
2019-02-07T04:01:55.326Z,119.70
2019-02-07T04:04:37.430Z,118.87
2019-02-07T04:07:28.007Z,112.33
2019-02-07T04:10:21.780Z,111.77
2019-02-07T04:13:08.329Z,105.57
2019-02-07T04:16:15.209Z,100.40
2019-02-07T04:19:00.882Z,100.77
2019-02-07T04:21:42.392Z,94.97
2019-02-07T04:24:33.021Z,99.33
2019-02-07T04:27:13.190Z,100.80
2019-02-07T04:29:59.841Z,99.00
2019-02-07T04:32:46.772Z,102.73
2019-02-07T04:35:29.448Z,102.10
2019-02-07T04:38:16.170Z,93.30
2019-02-07T04:41:16.087Z,92.43
2019-02-07T04:44:02.479Z,87.87
2019-02-07T04:46:51.330Z,76.10
2019-02-07T04:49:45.950Z,80.47
2019-02-07T04:52:33.651Z,81.40
2019-02-07T04:55:19.439Z,80.33
2019-02-07T04:58:06.201Z,80.33
2019-02-07T05:01:01.031Z,79.87
2019-02-07T05:03:57.120Z,78.73
2019-02-07T05:06:47.864Z,76.63
2019-02-07T05:09:44.182Z,82.40
2019-02-07T05:12:19.586Z,80.20
2019-02-07T05:15:06.443Z,80.63
2019-02-07T05:18:02.996Z,81.97
2019-02-07T05:20:42.209Z,76.43
2019-02-07T05:23:39.007Z,79.07
2019-02-07T05:26:17.570Z,77.50
2019-02-07T05:29:05.332Z,74.97
2019-02-07T05:31:52.578Z,70.87
2019-02-07T05:34:39.067Z,71.47
2019-02-07T05:37:17.394Z,70.77
2019-02-07T05:40:03.962Z,68.50
2019-02-07T05:42:50.854Z,65.93
2019-02-07T05:45:42.096Z,64.53
2019-02-07T05:48:28.868Z,59.80
2019-02-07T05:51:16.699Z,58.10
2019-02-07T05:54:11.683Z,59.30
2019-02-07T05:56:54.773Z,55.53
2019-02-07T05:59:41.457Z,54.60
2019-02-07T06:02:29.584Z,52.03
2019-02-07T06:05:32.682Z,51.30
2019-02-07T06:08:23.925Z,45.13
2019-02-07T06:11:14.868Z,44.50
2019-02-07T06:13:56.639Z,44.13
2019-02-07T06:16:33.870Z,45.17
2019-02-07T06:19:17.712Z,39.83
2019-02-07T06:22:04.457Z,37.97
2019-02-07T06:24:55.002Z,37.37
2019-02-07T06:27:42.776Z,32.07
2019-02-07T06:30:32.184Z,32.30
2019-02-07T06:33:19.255Z,35.27
2019-02-07T06:36:10.187Z,37.87
2019-02-07T06:39:01.156Z,31.27
2019-02-07T06:41:46.390Z,30.70
2019-02-07T06:44:34.402Z,30.83
2019-02-07T06:47:18.818Z,34.47
2019-02-07T06:50:19.584Z,30.80
2019-02-07T06:53:06.619Z,30.40
2019-02-07T06:55:51.356Z,30.27
2019-02-07T06:58:42.617Z,35.03
2019-02-07T07:01:39.783Z,27.57
2019-02-07T07:04:27.653Z,31.10
2019-02-07T07:07:22.349Z,28.03
2019-02-07T07:10:08.982Z,31.67
2019-02-07T07:12:55.495Z,23.00
2019-02-07T07:15:55.803Z,26.90
2019-02-07T07:18:42.333Z,22.67
2019-02-07T07:21:29.546Z,24.13
2019-02-07T07:24:13.426Z,23.23
2019-02-07T07:26:54.711Z,26.27
2019-02-07T07:29:52.104Z,23.73
2019-02-07T07:32:38.542Z,19.90
2019-02-07T07:35:26.090Z,20.50
2019-02-07T07:38:32.221Z,22.70
2019-02-07T07:41:23.894Z,22.00
2019-02-07T07:44:01.995Z,21.50
2019-02-07T07:46:47.809Z,19.83
2019-02-07T07:49:28.549Z,19.00
2019-02-07T07:52:07.628Z,19.20
2019-02-07T07:54:49.817Z,22.37
2019-02-07T07:57:36.161Z,17.77
2019-02-07T08:00:37.630Z,20.77
2019-02-07T08:03:35.047Z,18.37
2019-02-07T08:06:28.608Z,18.80
2019-02-07T08:09:34.681Z,19.67
2019-02-07T08:12:11.543Z,19.43
2019-02-07T08:15:02.615Z,17.60
2019-02-07T08:17:47.465Z,18.30
2019-02-07T08:20:28.822Z,17.73
2019-02-07T08:23:28.680Z,18.30
2019-02-07T08:26:14.933Z,16.80
2019-02-07T08:29:05.750Z,16.87
2019-02-07T08:31:51.091Z,17.17
2019-02-07T08:34:34.766Z,17.70
2019-02-07T08:37:30.538Z,13.30
2019-02-07T08:40:19.742Z,17.27
2019-02-07T08:43:06.285Z,19.40
2019-02-07T08:45:51.776Z,16.90
2019-02-07T08:48:46.267Z,18.33
2019-02-07T08:51:32.799Z,17.10
2019-02-07T08:54:24.568Z,19.27
2019-02-07T08:57:08.951Z,15.97
2019-02-07T08:59:57.284Z,19.77
2019-02-07T09:02:51.645Z,14.90
2019-02-07T09:05:32.674Z,13.83
2019-02-07T09:08:15.795Z,16.90
2019-02-07T09:11:06.629Z,15.70
2019-02-07T09:14:02.856Z,16.00
2019-02-07T09:17:09.123Z,15.63
2019-02-07T09:19:57.091Z,16.33
2019-02-07T09:22:34.160Z,18.80
2019-02-07T09:25:21.329Z,12.67
2019-02-07T09:28:12.987Z,17.43
2019-02-07T09:31:00.918Z,16.70
2019-02-07T09:33:47.558Z,17.17
2019-02-07T09:36:34.088Z,16.17
2019-02-07T09:39:24.584Z,14.33
2019-02-07T09:42:11.543Z,22.13
2019-02-07T09:44:52.720Z,18.00
2019-02-07T09:47:39.082Z,20.03
2019-02-07T09:50:25.841Z,15.40
2019-02-07T09:53:06.969Z,14.93
2019-02-07T09:55:54.972Z,16.83
2019-02-07T09:58:41.510Z,17.33
2019-02-07T10:01:28.304Z,17.83
2019-02-07T10:04:12.983Z,16.87
2019-02-07T10:06:59.619Z,16.90
2019-02-07T10:09:46.265Z,15.80
2019-02-07T10:12:33.175Z,18.00
2019-02-07T10:15:15.090Z,15.13
2019-02-07T10:18:00.746Z,17.30
2019-02-07T10:20:57.799Z,16.63
2019-02-07T10:23:44.293Z,15.93
2019-02-07T10:26:32.237Z,17.07
2019-02-07T10:29:32.137Z,14.97
2019-02-07T10:32:11.242Z,18.93
2019-02-07T10:34:48.116Z,16.07
2019-02-07T10:37:34.844Z,16.80
2019-02-07T10:40:11.906Z,15.93
2019-02-07T10:43:05.879Z,13.77
2019-02-07T10:45:56.726Z,12.63
2019-02-07T10:48:44.703Z,16.53
2019-02-07T10:51:26.937Z,14.83
2019-02-07T10:54:10.501Z,15.00
2019-02-07T10:57:00.942Z,17.17
2019-02-07T10:59:39.624Z,14.03
2019-02-07T11:02:26.399Z,15.37
2019-02-07T11:05:21.642Z,14.20
2019-02-07T11:08:04.990Z,14.90
2019-02-07T11:11:07.765Z,14.23
2019-02-07T11:13:46.913Z,12.63
2019-02-07T11:16:30.933Z,15.03
2019-02-07T11:19:24.870Z,14.17
2019-02-07T11:22:24.119Z,12.23
2019-02-07T11:25:17.744Z,12.87
2019-02-07T11:27:53.848Z,14.07
2019-02-07T11:30:48.125Z,12.10
2019-02-07T11:33:39.074Z,18.60
2019-02-07T11:36:25.558Z,15.00
2019-02-07T11:39:17.579Z,11.90
2019-02-07T11:42:04.224Z,9.47
2019-02-07T11:44:51.915Z,9.70
2019-02-07T11:47:34.344Z,9.53
2019-02-07T11:50:31.533Z,8.17
2019-02-07T11:53:26.023Z,11.70
2019-02-07T11:56:11.502Z,11.20
2019-02-07T11:58:56.241Z,13.30
2019-02-07T12:01:36.324Z,11.30
2019-02-07T12:04:37.598Z,11.17
2019-02-07T12:07:22.491Z,11.03
2019-02-07T12:10:23.395Z,11.87
2019-02-07T12:13:11.352Z,14.17
2019-02-07T12:15:58.505Z,8.73
2019-02-07T12:18:48.837Z,9.20
2019-02-07T12:21:35.300Z,10.73
2019-02-07T12:24:22.574Z,11.60
2019-02-07T12:27:01.072Z,14.33
2019-02-07T12:29:52.119Z,16.10
2019-02-07T12:32:49.148Z,14.50
2019-02-07T12:35:46.906Z,14.77
2019-02-07T12:38:37.348Z,19.23
2019-02-07T12:41:15.818Z,12.27
2019-02-07T12:43:59.116Z,18.90
2019-02-07T12:46:56.858Z,13.30
2019-02-07T12:49:44.556Z,15.47
2019-02-07T12:52:30.875Z,15.73
2019-02-07T12:55:12.164Z,13.23
2019-02-07T12:57:56.158Z,14.13
2019-02-07T13:00:37.568Z,12.80
2019-02-07T13:03:40.983Z,17.37
2019-02-07T13:06:20.165Z,12.67
2019-02-07T13:09:06.865Z,12.03
2019-02-07T13:11:43.604Z,15.40
2019-02-07T13:14:27.173Z,16.73
2019-02-07T13:17:04.479Z,14.97
2019-02-07T13:19:44.874Z,17.33
2019-02-07T13:22:38.840Z,13.73
2019-02-07T13:25:29.735Z,17.80
2019-02-07T13:28:23.558Z,14.83
2019-02-07T13:31:10.281Z,15.10
2019-02-07T13:33:46.881Z,17.43
2019-02-07T13:36:27.147Z,16.77
2019-02-07T13:39:17.387Z,18.13
2019-02-07T13:42:07.191Z,18.43
2019-02-07T13:44:57.767Z,19.63
2019-02-07T13:47:48.743Z,15.90
2019-02-07T13:50:48.677Z,13.67
2019-02-07T13:53:30.001Z,19.70
2019-02-07T13:56:33.421Z,19.13
2019-02-07T13:59:15.429Z,14.73
2019-02-07T14:02:05.969Z,14.50
2019-02-07T14:04:48.243Z,16.00
2019-02-07T14:07:35.163Z,16.80
2019-02-07T14:10:18.387Z,18.80
2019-02-07T14:13:11.556Z,23.13
2019-02-07T14:16:03.172Z,20.30
2019-02-07T14:18:42.945Z,19.37
2019-02-07T14:21:30.892Z,17.17
2019-02-07T14:24:08.524Z,16.53
2019-02-07T14:26:59.580Z,15.43
2019-02-07T14:29:37.399Z,14.10
2019-02-07T14:32:24.185Z,19.07
2019-02-07T14:35:21.194Z,19.17
2019-02-07T14:38:10.241Z,17.90
2019-02-07T14:40:52.878Z,18.37
2019-02-07T14:43:39.772Z,16.30
2019-02-07T14:46:37.518Z,16.27
2019-02-07T14:49:06.237Z,19.20
2019-02-07T14:51:35.127Z,17.43
2019-02-07T14:54:04.745Z,14.63
2019-02-07T14:56:33.795Z,18.47
2019-02-07T14:59:02.588Z,16.50
2019-02-07T15:01:31.817Z,18.73
2019-02-07T15:04:00.777Z,15.07
2019-02-07T15:06:29.791Z,18.57
2019-02-07T15:08:58.989Z,16.70
2019-02-07T15:11:28.147Z,14.00
2019-02-07T15:13:57.235Z,14.90
2019-02-07T15:16:26.231Z,17.20
2019-02-07T15:18:55.167Z,14.87
2019-02-07T15:21:24.093Z,15.37
2019-02-07T15:23:52.992Z,15.57
2019-02-07T15:26:22.483Z,15.37
2019-02-07T15:28:51.114Z,18.43
2019-02-07T15:31:20.233Z,18.83
2019-02-07T15:33:48.998Z,15.67
2019-02-07T15:36:17.736Z,17.03
2019-02-07T15:38:46.764Z,16.07
2019-02-07T15:41:15.467Z,13.63
2019-02-07T15:43:44.750Z,18.97
2019-02-07T15:46:13.744Z,14.83
2019-02-07T15:48:42.671Z,21.33
2019-02-07T15:51:11.403Z,15.50
2019-02-07T15:53:40.371Z,16.83
2019-02-07T15:56:09.125Z,17.13
2019-02-07T15:58:52.492Z,17.57
2019-02-07T16:01:26.652Z,17.53
2019-02-07T16:04:00.456Z,16.83
2019-02-07T16:06:29.196Z,19.17
2019-02-07T16:08:58.419Z,15.97
2019-02-07T16:11:27.334Z,19.30
2019-02-07T16:13:56.000Z,18.27
2019-02-07T16:16:24.651Z,19.00
2019-02-07T16:18:54.172Z,17.63
2019-02-07T16:21:23.356Z,16.10
2019-02-07T16:23:52.636Z,21.87
2019-02-07T16:26:21.613Z,18.23
2019-02-07T16:28:50.528Z,20.23
2019-02-07T16:31:19.649Z,18.50
2019-02-07T16:33:48.503Z,22.37
2019-02-07T16:36:17.555Z,20.17
2019-02-07T16:38:46.769Z,20.53
2019-02-07T16:41:15.493Z,25.63
2019-02-07T16:43:44.215Z,19.80
2019-02-07T16:46:13.270Z,19.47
2019-02-07T16:48:41.940Z,21.57
2019-02-07T16:51:10.891Z,20.37
2019-02-07T16:53:40.023Z,21.10
2019-02-07T16:56:08.705Z,22.20
2019-02-07T16:58:37.526Z,21.90
2019-02-07T17:01:07.525Z,23.37
2019-02-07T17:03:36.433Z,23.73
2019-02-07T17:06:06.339Z,21.63
2019-02-07T17:08:35.155Z,22.67
2019-02-07T17:11:04.244Z,23.00
2019-02-07T17:13:33.443Z,22.30
2019-02-07T17:16:02.205Z,24.13
2019-02-07T17:18:31.121Z,25.37
2019-02-07T17:21:11.221Z,25.60
2019-02-07T17:23:30.781Z,23.60
2019-02-07T17:25:59.642Z,22.47
2019-02-07T17:28:28.550Z,21.27
2019-02-07T17:30:57.548Z,27.17
2019-02-07T17:33:26.639Z,26.57
2019-02-07T17:35:55.697Z,23.43
2019-02-07T17:38:25.399Z,24.43
2019-02-07T17:40:54.676Z,24.43
2019-02-07T17:43:23.625Z,22.77
2019-02-07T17:45:52.565Z,25.70
2019-02-07T17:48:21.547Z,26.47
2019-02-07T17:50:50.494Z,26.43
2019-02-07T17:53:19.205Z,25.23
2019-02-07T17:55:48.275Z,24.77
2019-02-07T17:58:16.972Z,25.80
2019-02-07T18:00:52.328Z,21.30
2019-02-07T18:03:21.368Z,23.90
2019-02-07T18:05:50.443Z,25.53
2019-02-07T18:08:20.206Z,26.97
2019-02-07T18:10:49.308Z,24.07
2019-02-07T18:13:18.539Z,27.77
2019-02-07T18:15:47.394Z,26.63
2019-02-07T18:18:16.129Z,28.17
2019-02-07T18:20:45.119Z,26.87
2019-02-07T18:23:14.522Z,29.63
2019-02-07T18:25:43.338Z,28.53
2019-02-07T18:28:12.022Z,28.73
2019-02-07T18:30:41.268Z,25.77
2019-02-07T18:33:10.176Z,28.10
2019-02-07T18:35:39.072Z,32.23
2019-02-07T18:38:08.063Z,28.23
2019-02-07T18:40:37.064Z,30.53
2019-02-07T18:43:06.559Z,32.30
2019-02-07T18:45:35.753Z,32.50
2019-02-07T18:48:04.896Z,33.23
2019-02-07T18:50:35.389Z,30.43
2019-02-07T18:53:05.017Z,33.27
2019-02-07T18:55:33.795Z,30.70
2019-02-07T18:58:05.747Z,34.57
2019-02-07T19:00:35.148Z,30.87
2019-02-07T19:03:04.967Z,36.07
2019-02-07T19:05:33.743Z,30.83
2019-02-07T19:08:02.761Z,36.27
2019-02-07T19:10:31.562Z,30.73
2019-02-07T19:13:01.503Z,30.73
2019-02-07T19:15:39.074Z,32.50
2019-02-07T19:18:07.931Z,33.37
2019-02-07T19:20:36.959Z,28.37
2019-02-07T19:23:06.355Z,30.53
2019-02-07T19:25:37.099Z,31.00
2019-02-07T19:28:08.617Z,29.70
2019-02-07T19:30:38.882Z,25.93
2019-02-07T19:33:08.241Z,27.70
2019-02-07T19:35:37.368Z,31.50
2019-02-07T19:38:06.144Z,29.93
2019-02-07T19:40:35.070Z,29.57
2019-02-07T19:43:04.164Z,29.30
2019-02-07T19:45:33.166Z,24.87
2019-02-07T19:48:01.815Z,28.87
2019-02-07T19:50:30.543Z,34.00
2019-02-07T19:52:59.464Z,28.67
2019-02-07T19:55:31.646Z,31.63
2019-02-07T19:58:00.414Z,28.27
2019-02-07T20:00:30.881Z,30.67
2019-02-07T20:02:59.873Z,27.70
2019-02-07T20:05:28.997Z,34.50
2019-02-07T20:07:58.988Z,28.20
2019-02-07T20:10:28.173Z,30.03
2019-02-07T20:12:57.484Z,26.87
2019-02-07T20:15:28.626Z,32.17
2019-02-07T20:17:59.737Z,25.73
2019-02-07T20:20:29.777Z,30.00
2019-02-07T20:22:58.648Z,23.80
2019-02-07T20:25:27.469Z,24.87
2019-02-07T20:27:56.860Z,23.90
2019-02-07T20:30:27.843Z,23.80
2019-02-07T20:32:57.107Z,25.60
2019-02-07T20:35:26.386Z,24.97
2019-02-07T20:37:55.255Z,20.90
2019-02-07T20:40:25.729Z,26.03
2019-02-07T20:42:54.624Z,25.63
2019-02-07T20:45:24.462Z,18.10
2019-02-07T20:47:53.279Z,23.67
2019-02-07T20:50:25.547Z,19.50
2019-02-07T20:52:56.692Z,22.97
2019-02-07T20:55:25.719Z,15.47
2019-02-07T20:57:54.880Z,21.67
2019-02-07T21:00:32.003Z,23.03
2019-02-07T21:03:03.645Z,22.47
2019-02-07T21:05:32.637Z,18.67
2019-02-07T21:08:01.532Z,21.50
2019-02-07T21:10:31.742Z,19.77
2019-02-07T21:13:00.515Z,24.63
2019-02-07T21:15:30.071Z,22.20
2019-02-07T21:17:58.753Z,28.00
2019-02-07T21:20:28.530Z,17.73
2019-02-07T21:22:58.619Z,25.90
2019-02-07T21:25:48.151Z,24.63
2019-02-07T21:28:17.025Z,14.17
2019-02-07T21:30:45.739Z,23.13
2019-02-07T21:33:14.472Z,24.33
2019-02-07T21:35:43.348Z,21.70
2019-02-07T21:38:12.315Z,22.30
2019-02-07T21:40:41.017Z,28.33
2019-02-07T21:43:10.569Z,27.43
2019-02-07T21:45:39.569Z,17.70
2019-02-07T21:48:10.600Z,22.07
2019-02-07T21:50:39.414Z,24.67
2019-02-07T21:53:08.073Z,22.87
2019-02-07T21:55:37.240Z,23.97
2019-02-07T21:58:06.947Z,19.87
2019-02-07T22:00:38.151Z,24.70
2019-02-07T22:03:09.072Z,23.40
2019-02-07T22:05:38.235Z,21.00
2019-02-07T22:08:07.944Z,17.53
2019-02-07T22:10:37.001Z,19.67
2019-02-07T22:13:06.279Z,21.97
2019-02-07T22:15:35.160Z,24.23
2019-02-07T22:18:04.353Z,26.67
2019-02-07T22:20:33.149Z,22.60
2019-02-07T22:23:02.266Z,20.20
2019-02-07T22:25:31.178Z,20.47
2019-02-07T22:27:59.906Z,20.23
2019-02-07T22:30:31.791Z,19.47
2019-02-07T22:33:00.799Z,16.60
2019-02-07T22:35:30.404Z,20.40
2019-02-07T22:37:59.588Z,17.87
2019-02-07T22:40:28.623Z,23.63
2019-02-07T22:42:57.419Z,14.13
2019-02-07T22:45:26.906Z,15.10
2019-02-07T22:47:55.890Z,18.00
2019-02-07T22:50:26.122Z,20.90
2019-02-07T22:52:57.130Z,16.77
2019-02-07T22:55:25.671Z,13.70
2019-02-07T22:57:54.492Z,22.30
2019-02-07T23:01:08.729Z,17.70
2019-02-07T23:03:39.133Z,17.93
2019-02-07T23:06:08.622Z,17.43
2019-02-07T23:08:37.614Z,16.63
2019-02-07T23:11:08.392Z,20.60
2019-02-07T23:13:37.193Z,14.23
2019-02-07T23:16:08.604Z,19.63
2019-02-07T23:18:38.302Z,16.20
2019-02-07T23:21:07.824Z,20.00
2019-02-07T23:23:36.737Z,15.87
2019-02-07T23:26:07.161Z,17.77
2019-02-07T23:28:36.239Z,18.07
2019-02-07T23:31:06.951Z,21.20
2019-02-07T23:33:36.117Z,13.90
2019-02-07T23:36:06.449Z,13.10
2019-02-07T23:38:35.562Z,21.00
2019-02-07T23:41:04.926Z,13.23
2019-02-07T23:43:33.981Z,17.77
2019-02-07T23:46:02.724Z,17.87
2019-02-07T23:48:31.628Z,14.00
2019-02-07T23:51:00.692Z,11.30
2019-02-07T23:53:29.341Z,14.00
2019-02-07T23:55:58.506Z,16.23
2019-02-07T23:58:27.147Z,14.87
